Terminal Aerodrome Forecast
Issued by NWS Detroit/Pontiac, MI

Home | Current Version | Previous Version | Text Only | Print | Product List | Glossary On
Versions: 1 2 3 4 5 6 7 8 9 10 11 12 13 14 15 16 17
000
FTUS43 KDTX 010520
TAFFNT
TAF
KFNT 010520Z 0106/0206 36015G25KT 4SM -SN BR OVC010
     FM010800 36015G25KT P6SM OVC015
     FM011500 36015G25KT P6SM OVC025
     FM012000 36013KT P6SM BKN035
     FM012300 33007KT P6SM SCT035=

USA.gov is the U.S. government's official web portal to all federal, state and local government web resources and services.